createdAt,value
2022-10-17T00:00:40.214Z,19.23
2022-10-17T00:03:06.765Z,19.19
2022-10-17T00:05:33.353Z,19.19
2022-10-17T00:07:59.838Z,19.07
2022-10-17T00:10:26.349Z,19.24
2022-10-17T00:12:53.148Z,19.30
2022-10-17T00:15:22.253Z,19.25
2022-10-17T00:17:49.272Z,19.15
2022-10-17T00:20:16.653Z,19.17
2022-10-17T00:22:43.439Z,19.12
2022-10-17T00:25:10.404Z,19.20
2022-10-17T00:27:39.906Z,18.88
2022-10-17T00:30:09.749Z,18.78
2022-10-17T00:32:36.439Z,18.92
2022-10-17T00:35:03.184Z,18.65
2022-10-17T00:37:31.482Z,19.07
2022-10-17T00:39:58.427Z,19.06
2022-10-17T00:42:26.056Z,18.30
2022-10-17T00:45:29.388Z,18.98
2022-10-17T00:48:01.361Z,19.02
2022-10-17T00:50:28.318Z,18.68
2022-10-17T00:52:55.452Z,18.82
2022-10-17T00:55:29.575Z,18.43
2022-10-17T00:57:57.174Z,18.54
2022-10-17T01:00:24.466Z,18.85
2022-10-17T01:02:50.903Z,18.56
2022-10-17T01:05:18.705Z,18.41
2022-10-17T01:07:46.422Z,17.75
2022-10-17T01:10:13.490Z,18.14
2022-10-17T01:13:11.790Z,18.61
2022-10-17T01:16:00.268Z,18.86
2022-10-17T01:18:48.780Z,18.85
2022-10-17T01:21:29.962Z,18.67
2022-10-17T01:24:03.963Z,18.85
2022-10-17T01:26:42.646Z,18.58
2022-10-17T01:29:12.287Z,19.00
2022-10-17T01:31:44.636Z,18.57
2022-10-17T01:34:29.525Z,18.82
2022-10-17T01:37:25.403Z,18.94
2022-10-17T01:40:00.804Z,18.66
2022-10-17T01:42:44.484Z,18.79
2022-10-17T01:45:16.341Z,18.77
2022-10-17T01:47:43.089Z,18.98
2022-10-17T01:50:16.062Z,19.02
2022-10-17T01:52:50.603Z,18.89
2022-10-17T01:55:21.874Z,19.07
2022-10-17T01:57:51.713Z,19.01
2022-10-17T02:00:22.671Z,19.05
2022-10-17T02:02:50.267Z,19.09
2022-10-17T02:05:19.212Z,19.10
2022-10-17T02:07:45.853Z,19.05
2022-10-17T02:10:24.552Z,18.84
2022-10-17T02:13:02.300Z,18.93
2022-10-17T02:15:57.274Z,18.61
2022-10-17T02:18:31.516Z,18.92
2022-10-17T02:21:05.543Z,18.84
2022-10-17T02:23:49.045Z,18.93
2022-10-17T02:26:25.534Z,18.53
2022-10-17T02:29:08.811Z,18.47
2022-10-17T02:31:49.816Z,18.24
2022-10-17T02:34:43.596Z,17.94
2022-10-17T02:37:11.845Z,17.77
2022-10-17T02:39:40.082Z,17.89
2022-10-17T02:42:09.567Z,17.99
2022-10-17T02:44:38.415Z,17.80
2022-10-17T02:47:20.343Z,18.10
2022-10-17T02:49:51.981Z,17.49
2022-10-17T02:52:53.019Z,17.76
2022-10-17T02:55:24.299Z,17.92
2022-10-17T02:57:54.147Z,17.47
2022-10-17T03:00:23.873Z,17.33
2022-10-17T03:02:52.268Z,18.05
2022-10-17T03:05:22.286Z,18.10
2022-10-17T03:07:48.871Z,17.92
2022-10-17T03:10:15.792Z,17.94
2022-10-17T03:12:42.415Z,18.12
2022-10-17T03:15:09.528Z,18.01
2022-10-17T03:17:36.503Z,18.05
2022-10-17T03:20:03.963Z,18.18
2022-10-17T03:22:31.061Z,17.47
2022-10-17T03:24:57.894Z,18.12
2022-10-17T03:27:24.630Z,18.05
2022-10-17T03:29:52.090Z,18.28
2022-10-17T03:32:18.586Z,18.56
2022-10-17T03:34:45.037Z,18.44
2022-10-17T03:37:11.635Z,18.20
2022-10-17T03:39:39.275Z,18.15
2022-10-17T03:42:05.713Z,18.76
2022-10-17T03:44:32.274Z,18.60
2022-10-17T03:46:58.766Z,18.72
2022-10-17T03:49:25.372Z,18.21
2022-10-17T03:51:52.035Z,18.41
2022-10-17T03:54:18.524Z,18.60
2022-10-17T03:56:45.115Z,18.62
2022-10-17T03:59:14.511Z,18.34
2022-10-17T04:01:41.591Z,18.84
2022-10-17T04:04:08.819Z,19.19
2022-10-17T04:06:35.878Z,19.17
2022-10-17T04:09:03.169Z,18.73
2022-10-17T04:11:29.647Z,19.04
2022-10-17T04:13:57.639Z,19.28
2022-10-17T04:16:24.460Z,19.19
2022-10-17T04:18:55.847Z,19.34
2022-10-17T04:21:23.456Z,19.51
2022-10-17T04:23:58.002Z,19.21
2022-10-17T04:26:24.476Z,19.21
2022-10-17T04:28:51.206Z,19.19
2022-10-17T04:31:18.570Z,19.53
2022-10-17T04:33:47.779Z,19.15
2022-10-17T04:36:16.710Z,19.40
2022-10-17T04:38:43.419Z,18.91
2022-10-17T04:41:16.659Z,19.60
2022-10-17T04:43:45.602Z,19.28
2022-10-17T04:46:15.880Z,19.67
2022-10-17T04:48:42.521Z,19.33
2022-10-17T04:51:14.664Z,19.36
2022-10-17T04:53:42.132Z,20.06
2022-10-17T04:56:14.804Z,19.74
2022-10-17T04:58:42.356Z,19.19
2022-10-17T05:01:11.920Z,19.61
2022-10-17T05:03:38.875Z,19.75
2022-10-17T05:06:14.052Z,19.63
2022-10-17T05:08:41.190Z,19.87
2022-10-17T05:11:16.925Z,19.57
2022-10-17T05:13:43.768Z,19.82
2022-10-17T05:16:10.805Z,19.78
2022-10-17T05:18:37.387Z,19.90
2022-10-17T05:21:04.553Z,19.73
2022-10-17T05:23:31.055Z,20.02
2022-10-17T05:25:57.582Z,19.91
2022-10-17T05:28:24.855Z,20.03
2022-10-17T05:30:51.748Z,19.95
2022-10-17T05:33:22.998Z,19.29
2022-10-17T05:35:49.588Z,19.42
2022-10-17T05:38:16.130Z,19.50
2022-10-17T05:40:42.708Z,19.67
2022-10-17T05:43:09.167Z,19.60
2022-10-17T05:45:36.073Z,19.36
2022-10-17T05:48:02.656Z,19.23
2022-10-17T05:50:29.119Z,19.42
2022-10-17T05:52:55.670Z,19.13
2022-10-17T05:55:23.103Z,19.31
2022-10-17T05:57:50.587Z,19.21
2022-10-17T06:00:17.281Z,19.80
2022-10-17T06:02:45.908Z,19.51
2022-10-17T06:05:12.988Z,19.51
2022-10-17T06:07:40.556Z,19.70
2022-10-17T06:10:07.358Z,19.68
2022-10-17T06:12:34.042Z,20.07
2022-10-17T06:15:00.799Z,20.06
2022-10-17T06:17:28.133Z,19.63
2022-10-17T06:19:54.952Z,20.09
2022-10-17T06:22:21.537Z,20.63
2022-10-17T06:24:48.177Z,20.73
2022-10-17T06:27:14.687Z,20.65
2022-10-17T06:29:41.218Z,20.82
2022-10-17T06:32:09.970Z,20.59
2022-10-17T06:34:39.279Z,20.67
2022-10-17T06:37:05.778Z,20.67
2022-10-17T06:39:33.962Z,20.41
2022-10-17T06:42:01.736Z,20.24
2022-10-17T06:44:31.919Z,20.58
2022-10-17T06:47:00.367Z,20.19
2022-10-17T06:49:27.592Z,20.46
2022-10-17T06:51:54.657Z,20.39
2022-10-17T06:54:21.324Z,20.71
2022-10-17T06:56:47.937Z,21.11
2022-10-17T06:59:15.795Z,21.19
2022-10-17T07:01:46.065Z,21.22
2022-10-17T07:04:14.064Z,20.45
2022-10-17T07:06:40.645Z,20.93
2022-10-17T07:09:07.458Z,21.25
2022-10-17T07:11:37.413Z,21.02
2022-10-17T07:14:04.208Z,20.83
2022-10-17T07:16:30.760Z,20.95
2022-10-17T07:18:57.252Z,21.19
2022-10-17T07:21:24.014Z,21.75
2022-10-17T07:23:51.152Z,21.73
2022-10-17T07:26:18.544Z,21.45
2022-10-17T07:28:46.834Z,21.57
2022-10-17T07:31:17.710Z,21.78
2022-10-17T07:36:12.257Z,22.05
2022-10-17T07:38:39.332Z,21.47
2022-10-17T07:41:07.586Z,22.09
2022-10-17T07:43:34.829Z,22.40
2022-10-17T07:46:02.017Z,22.94
2022-10-17T07:48:28.667Z,22.73
2022-10-17T07:50:55.101Z,23.14
2022-10-17T07:53:21.854Z,23.23
2022-10-17T07:55:51.561Z,22.99
2022-10-17T07:58:18.217Z,23.13
2022-10-17T08:00:48.401Z,23.30
2022-10-17T08:03:15.289Z,22.98
2022-10-17T08:05:42.054Z,23.80
2022-10-17T08:08:08.625Z,23.44
2022-10-17T08:10:35.091Z,24.00
2022-10-17T08:13:01.734Z,23.58
2022-10-17T08:15:31.756Z,23.34
2022-10-17T08:17:59.221Z,24.23
2022-10-17T08:20:25.764Z,24.76
2022-10-17T08:22:53.445Z,24.50
2022-10-17T08:25:20.248Z,25.31
2022-10-17T08:27:46.897Z,24.85
2022-10-17T08:30:13.525Z,24.22
2022-10-17T08:32:40.419Z,25.11
2022-10-17T08:35:07.169Z,24.45
2022-10-17T08:37:34.197Z,24.94
2022-10-17T08:40:00.897Z,25.58
2022-10-17T08:42:34.375Z,24.94
2022-10-17T08:45:30.657Z,24.25
2022-10-17T08:48:11.456Z,26.25
2022-10-17T08:50:48.581Z,25.94
2022-10-17T08:53:21.495Z,26.57
2022-10-17T08:55:50.590Z,25.83
2022-10-17T08:58:27.403Z,26.01
2022-10-17T09:01:34.024Z,26.40
2022-10-17T09:04:09.657Z,25.92
2022-10-17T09:06:42.438Z,26.32
2022-10-17T09:09:22.302Z,27.35
2022-10-17T09:12:14.587Z,26.98
2022-10-17T09:14:47.218Z,26.80
2022-10-17T09:17:32.639Z,28.05
2022-10-17T09:20:09.904Z,28.49
2022-10-17T09:25:33.087Z,29.21
2022-10-17T09:28:22.380Z,28.10
2022-10-17T09:31:04.098Z,30.03
2022-10-17T09:33:55.270Z,31.72
2022-10-17T09:36:24.961Z,33.26
2022-10-17T09:39:00.237Z,34.58
2022-10-17T09:41:46.822Z,33.33
2022-10-17T09:44:23.181Z,33.51
2022-10-17T09:47:26.806Z,32.72
2022-10-17T09:49:53.511Z,35.91
2022-10-17T09:52:41.282Z,37.58
2022-10-17T09:55:21.849Z,37.65
2022-10-17T09:57:57.599Z,41.12
2022-10-17T10:00:28.107Z,42.06
2022-10-17T10:03:13.201Z,39.36
2022-10-17T10:05:40.584Z,40.20
2022-10-17T10:08:16.175Z,40.46
2022-10-17T10:10:43.665Z,43.92
2022-10-17T10:13:13.173Z,42.82
2022-10-17T10:16:21.211Z,37.41
2022-10-17T10:18:50.144Z,33.25
2022-10-17T10:21:23.236Z,31.11
2022-10-17T10:24:06.863Z,29.76
2022-10-17T10:26:39.538Z,27.73
2022-10-17T10:29:19.382Z,27.03
2022-10-17T10:31:46.361Z,25.70
2022-10-17T10:34:26.536Z,26.54
2022-10-17T10:37:04.756Z,25.30
2022-10-17T10:39:32.999Z,24.92
2022-10-17T10:42:01.327Z,25.29
2022-10-17T10:44:31.064Z,24.59
2022-10-17T10:47:30.943Z,25.49
2022-10-17T10:50:25.480Z,25.80
2022-10-17T10:53:22.070Z,25.70
2022-10-17T10:56:30.417Z,26.25
2022-10-17T10:59:00.590Z,26.03
2022-10-17T11:01:42.812Z,25.11
2022-10-17T11:04:21.471Z,25.17
2022-10-17T11:06:50.427Z,25.74
2022-10-17T11:09:24.319Z,24.57
2022-10-17T11:11:58.716Z,24.51
2022-10-17T11:14:28.080Z,25.09
2022-10-17T11:16:58.185Z,25.42
2022-10-17T11:19:26.779Z,25.98
2022-10-17T11:21:53.538Z,25.66
2022-10-17T11:24:35.803Z,25.90
2022-10-17T11:27:04.827Z,25.71
2022-10-17T11:29:33.629Z,25.60
2022-10-17T11:32:14.154Z,25.18
2022-10-17T11:34:44.212Z,24.50
2022-10-17T11:37:18.984Z,25.46
2022-10-17T11:39:55.247Z,25.65
2022-10-17T11:42:34.592Z,24.66
2022-10-17T11:45:16.228Z,24.33
2022-10-17T11:47:55.706Z,24.85
2022-10-17T11:53:22.278Z,24.57
2022-10-17T11:55:49.794Z,25.02
2022-10-17T11:58:47.309Z,25.11
2022-10-17T12:01:38.051Z,25.24
2022-10-17T12:04:39.268Z,24.36
2022-10-17T12:07:10.750Z,25.42
2022-10-17T12:09:52.490Z,25.76
2022-10-17T12:12:28.391Z,24.88
2022-10-17T12:15:06.517Z,24.99
2022-10-17T12:17:43.478Z,25.40
2022-10-17T12:20:28.755Z,25.65
2022-10-17T12:23:04.393Z,25.82
2022-10-17T12:25:34.162Z,25.86
2022-10-17T12:28:06.867Z,25.07
2022-10-17T12:30:33.816Z,24.75
2022-10-17T12:33:22.461Z,25.83
2022-10-17T12:35:51.236Z,26.05
2022-10-17T12:38:17.765Z,26.12
2022-10-17T12:40:48.615Z,25.96
2022-10-17T12:43:15.864Z,25.73
2022-10-17T12:45:55.169Z,24.87
2022-10-17T12:48:33.832Z,24.66
2022-10-17T12:51:34.095Z,25.01
2022-10-17T12:54:00.457Z,24.93
2022-10-17T12:56:52.470Z,24.65
2022-10-17T12:59:27.410Z,25.09
2022-10-17T13:01:59.194Z,24.55
2022-10-17T13:04:26.833Z,25.53
2022-10-17T13:06:56.044Z,24.70
2022-10-17T13:09:30.151Z,24.86
2022-10-17T13:11:59.477Z,25.76
2022-10-17T13:14:26.874Z,25.05
2022-10-17T13:17:02.037Z,25.47
2022-10-17T13:19:43.562Z,25.00
2022-10-17T13:22:17.658Z,24.74
2022-10-17T13:24:44.662Z,24.87
2022-10-17T13:27:40.755Z,25.02
2022-10-17T13:30:29.348Z,25.05
2022-10-17T13:32:58.622Z,24.66
2022-10-17T13:35:58.732Z,23.88
2022-10-17T13:38:29.013Z,24.63
2022-10-17T13:41:05.763Z,24.85
2022-10-17T13:43:42.503Z,24.42
2022-10-17T13:46:36.809Z,24.06
2022-10-17T13:49:34.570Z,24.42
2022-10-17T13:52:02.981Z,24.91
2022-10-17T13:54:33.033Z,25.08
2022-10-17T13:57:00.011Z,24.84
2022-10-17T13:59:40.448Z,24.26
2022-10-17T14:02:14.602Z,24.72
2022-10-17T14:05:11.527Z,24.72
2022-10-17T14:08:05.412Z,23.93
2022-10-17T14:10:25.420Z,23.38
2022-10-17T14:12:52.913Z,23.62
2022-10-17T14:15:20.000Z,22.54
2022-10-17T14:17:46.671Z,23.58
2022-10-17T14:23:29.493Z,23.56
2022-10-17T14:26:15.737Z,23.74
2022-10-17T14:28:44.872Z,23.63
2022-10-17T14:31:25.634Z,23.68
2022-10-17T14:33:54.123Z,23.80
2022-10-17T14:36:29.511Z,23.81
2022-10-17T14:38:56.070Z,23.51
2022-10-17T14:41:47.303Z,23.60
2022-10-17T14:44:19.141Z,23.45
2022-10-17T14:46:49.759Z,23.57
2022-10-17T14:49:24.823Z,23.06
2022-10-17T14:52:18.348Z,22.99
2022-10-17T14:54:49.458Z,23.26
2022-10-17T14:57:22.050Z,23.23
2022-10-17T14:59:56.070Z,22.61
2022-10-17T15:02:27.112Z,23.35
2022-10-17T15:04:54.055Z,23.76
2022-10-17T15:07:21.708Z,23.36
2022-10-17T15:09:49.348Z,23.70
2022-10-17T15:12:25.191Z,23.81
2022-10-17T15:14:52.674Z,23.66
2022-10-17T15:17:30.889Z,23.57
2022-10-17T15:19:57.837Z,23.79
2022-10-17T15:22:24.781Z,23.40
2022-10-17T15:24:51.566Z,23.48
2022-10-17T15:27:20.907Z,22.90
2022-10-17T15:29:48.208Z,22.29
2022-10-17T15:32:15.048Z,22.80
2022-10-17T15:34:41.627Z,23.04
2022-10-17T15:37:16.807Z,22.78
2022-10-17T15:39:43.378Z,22.05
2022-10-17T15:42:11.805Z,22.68
2022-10-17T15:44:41.418Z,22.45
2022-10-17T15:47:15.794Z,22.74
2022-10-17T15:49:42.284Z,22.54
2022-10-17T15:52:08.878Z,22.83
2022-10-17T15:54:35.356Z,22.66
2022-10-17T15:57:01.937Z,22.70
2022-10-17T15:59:32.518Z,23.33
2022-10-17T16:01:59.020Z,22.22
2022-10-17T16:04:27.474Z,22.09
2022-10-17T16:06:54.341Z,22.11
2022-10-17T16:09:20.836Z,21.83
2022-10-17T16:11:47.339Z,21.62
2022-10-17T16:14:15.590Z,21.45
2022-10-17T16:16:42.394Z,21.44
2022-10-17T16:19:09.169Z,21.44
2022-10-17T16:21:37.472Z,21.10
2022-10-17T16:24:04.759Z,21.00
2022-10-17T16:26:31.641Z,20.97
2022-10-17T16:29:02.744Z,21.31
2022-10-17T16:31:33.866Z,20.97
2022-10-17T16:34:01.988Z,21.11
2022-10-17T16:36:28.667Z,20.66
2022-10-17T16:38:55.304Z,20.58
2022-10-17T16:41:24.918Z,20.60
2022-10-17T16:43:55.960Z,20.80
2022-10-17T16:46:23.503Z,20.35
2022-10-17T16:48:50.609Z,20.67
2022-10-17T16:51:18.870Z,20.70
2022-10-17T16:53:46.616Z,20.14
2022-10-17T16:56:23.731Z,20.42
2022-10-17T16:58:51.654Z,21.06
2022-10-17T17:01:20.306Z,20.21
2022-10-17T17:03:47.585Z,20.36
2022-10-17T17:06:17.218Z,20.29
2022-10-17T17:08:44.056Z,20.54
2022-10-17T17:11:12.603Z,20.50
2022-10-17T17:13:40.764Z,20.39
2022-10-17T17:16:15.424Z,20.23
2022-10-17T17:18:42.496Z,20.87
2022-10-17T17:21:10.847Z,20.71
2022-10-17T17:23:41.742Z,21.09
2022-10-17T17:26:15.669Z,20.93
2022-10-17T17:28:43.256Z,20.90
2022-10-17T17:31:12.642Z,21.41
2022-10-17T17:33:40.131Z,21.26
2022-10-17T17:36:07.678Z,21.29
2022-10-17T17:38:35.938Z,21.07
2022-10-17T17:41:03.237Z,21.01
2022-10-17T17:43:30.345Z,21.01
2022-10-17T17:45:56.902Z,21.08
2022-10-17T17:48:30.735Z,21.20
2022-10-17T17:50:57.337Z,21.18
2022-10-17T17:53:23.990Z,21.15
2022-10-17T17:56:07.728Z,20.94
2022-10-17T17:58:35.162Z,20.86
2022-10-17T18:01:02.372Z,20.84
2022-10-17T18:03:28.838Z,20.35
2022-10-17T18:05:55.346Z,20.82
2022-10-17T18:08:21.882Z,20.96
2022-10-17T18:10:54.286Z,20.98
2022-10-17T18:13:20.862Z,20.09
2022-10-17T18:15:48.809Z,19.63
2022-10-17T18:18:15.303Z,19.77
2022-10-17T18:20:42.630Z,19.62
2022-10-17T18:23:10.117Z,19.83
2022-10-17T18:25:36.739Z,19.67
2022-10-17T18:28:03.968Z,20.07
2022-10-17T18:30:33.736Z,20.31
2022-10-17T18:33:01.276Z,20.15
2022-10-17T18:35:27.861Z,20.02
2022-10-17T18:37:56.775Z,20.29
2022-10-17T18:40:23.259Z,20.65
2022-10-17T18:42:49.721Z,20.83
2022-10-17T18:45:17.345Z,20.89
2022-10-17T18:47:47.123Z,21.09
2022-10-17T18:50:15.091Z,21.05
2022-10-17T18:52:41.660Z,21.27
2022-10-17T18:55:08.997Z,21.39
2022-10-17T18:57:35.444Z,21.39
2022-10-17T19:00:02.007Z,21.38
2022-10-17T19:02:28.531Z,21.28
2022-10-17T19:05:03.539Z,21.62
2022-10-17T19:07:30.232Z,21.68
2022-10-17T19:09:57.102Z,21.40
2022-10-17T19:12:23.539Z,21.34
2022-10-17T19:14:50.820Z,21.36
2022-10-17T19:17:17.340Z,21.65
2022-10-17T19:19:43.882Z,21.60
2022-10-17T19:22:10.480Z,21.48
2022-10-17T19:24:37.075Z,20.90
2022-10-17T19:27:05.130Z,21.19
2022-10-17T19:29:32.969Z,20.76
2022-10-17T19:32:00.516Z,20.64
2022-10-17T19:34:27.796Z,20.90
2022-10-17T19:36:55.646Z,20.55
2022-10-17T19:39:23.857Z,21.08
2022-10-17T19:41:50.476Z,21.03
2022-10-17T19:44:17.061Z,20.42
2022-10-17T19:46:46.568Z,21.12
2022-10-17T19:49:16.457Z,21.28
2022-10-17T19:51:43.112Z,21.35
2022-10-17T19:54:09.997Z,21.11
2022-10-17T19:56:38.049Z,21.24
2022-10-17T19:59:06.451Z,21.13
2022-10-17T20:01:35.182Z,21.25
2022-10-17T20:04:04.263Z,21.00
2022-10-17T20:06:32.556Z,20.69
2022-10-17T20:08:59.188Z,21.08
2022-10-17T20:11:28.300Z,21.15
2022-10-17T20:13:55.512Z,21.19
2022-10-17T20:16:33.086Z,21.18
2022-10-17T20:19:08.311Z,20.70
2022-10-17T20:21:36.533Z,20.99
2022-10-17T20:24:04.941Z,20.90
2022-10-17T20:26:38.202Z,20.84
2022-10-17T20:29:11.378Z,20.87
2022-10-17T20:31:39.396Z,20.30
2022-10-17T20:34:08.097Z,20.72
2022-10-17T20:36:37.382Z,20.48
2022-10-17T20:39:05.357Z,20.46
2022-10-17T20:41:31.895Z,20.72
2022-10-17T20:43:58.501Z,20.80
2022-10-17T20:46:48.515Z,20.93
2022-10-17T20:49:15.929Z,20.85
2022-10-17T20:51:42.647Z,20.64
2022-10-17T20:54:09.256Z,20.96
2022-10-17T20:56:36.130Z,20.69
2022-10-17T20:59:08.410Z,20.87
2022-10-17T21:01:35.882Z,20.69
2022-10-17T21:04:26.896Z,20.96
2022-10-17T21:06:52.208Z,20.96
2022-10-17T21:09:19.339Z,20.79
2022-10-17T21:11:45.872Z,20.72
2022-10-17T21:14:12.779Z,20.39
2022-10-17T21:16:40.217Z,20.72
2022-10-17T21:19:06.728Z,20.92
2022-10-17T21:21:36.592Z,20.88
2022-10-17T21:24:06.491Z,20.59
2022-10-17T21:26:34.521Z,20.74
2022-10-17T21:29:05.892Z,20.53
2022-10-17T21:31:34.399Z,20.73
2022-10-17T21:34:05.435Z,20.82
2022-10-17T21:36:32.075Z,20.70
2022-10-17T21:38:58.631Z,20.56
2022-10-17T21:41:28.043Z,20.76
2022-10-17T21:43:56.292Z,20.58
2022-10-17T21:46:23.086Z,20.80
2022-10-17T21:48:51.704Z,20.69
2022-10-17T21:51:22.439Z,20.76
2022-10-17T21:53:50.798Z,20.89
2022-10-17T21:56:19.157Z,20.83
2022-10-17T21:58:46.082Z,20.91
2022-10-17T22:01:15.309Z,20.71
2022-10-17T22:03:46.595Z,20.83
2022-10-17T22:06:38.577Z,20.92
2022-10-17T22:09:07.573Z,20.63
2022-10-17T22:11:35.110Z,20.90
2022-10-17T22:14:05.051Z,20.84
2022-10-17T22:16:32.222Z,20.85
2022-10-17T22:19:03.209Z,20.83
2022-10-17T22:21:32.681Z,20.81
2022-10-17T22:24:01.110Z,20.85
2022-10-17T22:26:28.972Z,20.26
2022-10-17T22:28:56.062Z,20.18
2022-10-17T22:31:22.818Z,20.36
2022-10-17T22:33:49.363Z,20.32
2022-10-17T22:36:17.031Z,20.16
2022-10-17T22:38:43.457Z,20.39
2022-10-17T22:41:10.071Z,20.60
2022-10-17T22:43:36.589Z,20.69
2022-10-17T22:46:04.479Z,20.72
2022-10-17T22:48:31.375Z,20.71
2022-10-17T22:50:58.834Z,20.62
2022-10-17T22:53:26.721Z,20.76
2022-10-17T22:55:54.479Z,20.54
2022-10-17T22:58:21.663Z,20.53
2022-10-17T23:00:50.084Z,20.50
2022-10-17T23:03:18.949Z,20.41
2022-10-17T23:05:45.721Z,20.44
2022-10-17T23:08:13.375Z,19.97
2022-10-17T23:10:40.018Z,20.32
2022-10-17T23:13:07.463Z,20.55
2022-10-17T23:15:34.350Z,20.65
2022-10-17T23:18:01.660Z,20.70
2022-10-17T23:20:29.454Z,20.67
2022-10-17T23:23:05.559Z,20.68
2022-10-17T23:25:33.795Z,20.41
2022-10-17T23:28:00.443Z,20.57
2022-10-17T23:30:27.040Z,20.18
2022-10-17T23:32:53.558Z,20.56
2022-10-17T23:35:20.094Z,20.66
2022-10-17T23:37:46.552Z,20.27
2022-10-17T23:40:13.259Z,20.49
2022-10-17T23:42:39.787Z,20.42
2022-10-17T23:45:06.924Z,20.23
2022-10-17T23:47:33.709Z,20.50
2022-10-17T23:50:01.040Z,20.52
2022-10-17T23:52:27.796Z,20.60
2022-10-17T23:54:54.297Z,20.45
2022-10-17T23:57:20.739Z,20.60
2022-10-17T23:59:47.235Z,20.47
